Weather at Youngdong Beach Tower Apartments Heliports

Public forecast

Using degrees Celsius for public forecast. Weather courtesy of forecast.io.

Closest aviation weather report (METAR) to Youngdong Beach Tower Apartments Heliports

Closest report is Gimhae International Airport, 7.6 nm (14.1 km) NNW. Retrieved 2021/01/28 07:00 UTC (45 minutes ago):

RKPK 280700Z 28021G31KT 9999 FEW040 BKN070 09/M05 Q1010 RMK CIG070 PKWND 3133/29 SLP102 8/510 9/240

Closest aviation forecast (TAF) to Youngdong Beach Tower Apartments Heliports

Closest forecast is Gimhae International Airport, 7.6 nm (14.1 km) NNW. Retrieved 2021/01/28 06:50 UTC (55 minutes ago):

TAF COR RKPK 280500Z 2806/2912 28010G20KT 9999 BKN030 TNM06/2821Z TXM01/2906Z TEMPO 2806/2809 4800 -RA BR BECMG 2809/2810 9999 NSW SCT030